Portsmouth, NH (03801)

11:14 AM EST on December 06, 2016 (GMT -0500)
Marjorie Street | | Change Station

Elev 43 ft 43.06 °N, 70.78 °W | Updated 12 seconds ago

Partly Cloudy
Partly Cloudy
38.8 °F
Feels Like 39 °F
N
0.0
Wind Variable Wind from North
Gusts 3.4 mph

Today
High -- | Low -- °F
--% Chance of Precip.
Yesterday
High -- | Low -- °F
Precip. -- in
Pressure 30.10 in
Visibility 10.0 miles
Clouds Few 25000 ft
Windchill 39 °F
Dew Point 31 °F
Humidity 73%
Rainfall 0.00 in
Snow Depth Not available.
7:00 AM 4:08 PM
Waxing Crescent, 43% visible
METAR KPSM 061558Z 32004KT 10SM FEW250 04/M01 A3009 RMK AO2A SLP193 T00411013 CHINO RWY16 $
Pressure 30.10 in
Visibility 10.0 miles
Clouds Few 25000 ft
Windchill 39 °F
Dew Point 31 °F
Humidity 73%
Rainfall 0.00 in
Snow Depth Not available.
7:00 AM 4:08 PM
Waxing Crescent, 43% visible
METAR KPSM 061558Z 32004KT 10SM FEW250 04/M01 A3009 RMK AO2A SLP193 T00411013 CHINO RWY16 $

10-Day Weather Forecast

Almanac

Astronomy

Dec. 06, 2016 Rise Set
Actual Time
Civil Twilight
Nautical Twilight
Astronomical Twilight
Moon
Length of Visible Light
Length of Day
Tomorrow will be .
, % of the Moon is Illuminated

Today's Extremes

State Highs State Lows

Community

WunderPhotos

Upload Photos

1,955,969 photos uploaded!

WunderBlog® & News

Nearby

Air Quality

  Air Quality AQ Index Pollutant
Not available.

Snow Depth

Station Depth Elevation

Earthquake Activity

City Distance Mag. Time & Date
Minimum magnitude displayed is 2.5.

Coastal Water Temperatures

Place Temperature

Stations

Nearby Weather Stations

Station Location Temp. Windchill Dew Point Humidity Wind Precip. Elev Updated Type
                   

Watches & Warnings

There are currently no watches in effect.